Terminal Aerodrome Forecast
Issued by NWS

Current Version | Previous Version | Graphics & Text | Print | Product List | Glossary On
Versions: 1 2 3 4 5 6 7 8 9 10 11 12 13 14 15 16 17 18 19 20 21 22 23 24 25 26 27 28 29 30 31 32 33 34 35 36 37 38 39 40 41 42 43
000
FTUS41 KRNK 281123
TAFLWB
TAF
KLWB 281123Z 2812/2912 27010KT P6SM VCSH SCT025 SCT070
     FM281400 29010G18KT P6SM VCSH BKN030
     FM282200 31008KT P6SM BKN040
     FM290500 VRB03KT 4SM BR BKN040
     FM290700 VRB03KT 1SM BR SCT001 BKN025=

USA.gov is the U.S. government's official web portal to all federal, state and local government web resources and services.